sensor_id;sensor_type;location;lat;lon;timestamp;temperature;humidity
19206;DHT22;59358;52.134;5.596;2023-07-29T00:02:12;17.90;99.90
19206;DHT22;59358;52.134;5.596;2023-07-29T00:04:41;17.90;99.90
19206;DHT22;59358;52.134;5.596;2023-07-29T00:07:07;17.90;99.90
19206;DHT22;59358;52.134;5.596;2023-07-29T00:09:34;17.90;99.90
19206;DHT22;59358;52.134;5.596;2023-07-29T00:12:01;17.80;99.90
19206;DHT22;59358;52.134;5.596;2023-07-29T00:14:28;17.80;99.90
19206;DHT22;59358;52.134;5.596;2023-07-29T00:16:55;17.80;99.90
19206;DHT22;59358;52.134;5.596;2023-07-29T00:19:22;17.80;99.90
19206;DHT22;59358;52.134;5.596;2023-07-29T00:21:51;17.70;99.90
19206;DHT22;59358;52.134;5.596;2023-07-29T00:24:18;17.70;99.90
19206;DHT22;59358;52.134;5.596;2023-07-29T00:26:45;17.80;99.90
19206;DHT22;59358;52.134;5.596;2023-07-29T00:29:12;17.70;99.90
19206;DHT22;59358;52.134;5.596;2023-07-29T00:31:39;17.70;99.90
19206;DHT22;59358;52.134;5.596;2023-07-29T00:34:05;17.70;99.90
19206;DHT22;59358;52.134;5.596;2023-07-29T00:36:33;17.70;99.90
19206;DHT22;59358;52.134;5.596;2023-07-29T00:39:01;17.70;99.90
19206;DHT22;59358;52.134;5.596;2023-07-29T00:41:28;17.60;99.90
19206;DHT22;59358;52.134;5.596;2023-07-29T00:43:55;17.70;99.90
19206;DHT22;59358;52.134;5.596;2023-07-29T00:46:23;17.60;99.90
19206;DHT22;59358;52.134;5.596;2023-07-29T00:48:50;17.60;99.90
19206;DHT22;59358;52.134;5.596;2023-07-29T00:51:17;17.60;99.90
19206;DHT22;59358;52.134;5.596;2023-07-29T00:53:44;17.60;99.90
19206;DHT22;59358;52.134;5.596;2023-07-29T00:56:12;17.50;99.90
19206;DHT22;59358;52.134;5.596;2023-07-29T00:58:39;17.60;99.90
19206;DHT22;59358;52.134;5.596;2023-07-29T01:01:06;17.70;99.90
19206;DHT22;59358;52.134;5.596;2023-07-29T01:03:33;17.70;99.90
19206;DHT22;59358;52.134;5.596;2023-07-29T01:06:18;17.80;99.90
19206;DHT22;59358;52.134;5.596;2023-07-29T01:08:54;17.80;99.90
19206;DHT22;59358;52.134;5.596;2023-07-29T01:11:33;17.80;99.90
19206;DHT22;59358;52.134;5.596;2023-07-29T01:14:06;17.80;99.90
19206;DHT22;59358;52.134;5.596;2023-07-29T01:16:42;17.80;99.90
19206;DHT22;59358;52.134;5.596;2023-07-29T01:19:14;17.70;99.90
19206;DHT22;59358;52.134;5.596;2023-07-29T01:21:44;17.70;99.90
19206;DHT22;59358;52.134;5.596;2023-07-29T01:24:12;17.60;99.90
19206;DHT22;59358;52.134;5.596;2023-07-29T01:26:39;17.60;99.90
19206;DHT22;59358;52.134;5.596;2023-07-29T01:29:06;17.50;99.90
19206;DHT22;59358;52.134;5.596;2023-07-29T01:31:35;17.60;99.90
19206;DHT22;59358;52.134;5.596;2023-07-29T01:34:09;17.60;99.90
19206;DHT22;59358;52.134;5.596;2023-07-29T01:36:42;17.60;99.90
19206;DHT22;59358;52.134;5.596;2023-07-29T01:39:12;17.60;99.90
19206;DHT22;59358;52.134;5.596;2023-07-29T01:41:41;17.60;99.90
19206;DHT22;59358;52.134;5.596;2023-07-29T01:44:08;17.60;99.90
19206;DHT22;59358;52.134;5.596;2023-07-29T01:46:37;17.60;99.90
19206;DHT22;59358;52.134;5.596;2023-07-29T01:49:04;17.60;99.90
19206;DHT22;59358;52.134;5.596;2023-07-29T01:51:31;17.70;99.90
19206;DHT22;59358;52.134;5.596;2023-07-29T01:53:58;17.70;99.90
19206;DHT22;59358;52.134;5.596;2023-07-29T01:56:26;17.70;99.90
19206;DHT22;59358;52.134;5.596;2023-07-29T01:58:53;17.60;99.90
19206;DHT22;59358;52.134;5.596;2023-07-29T02:01:21;17.70;99.90
19206;DHT22;59358;52.134;5.596;2023-07-29T02:03:48;17.70;99.90
19206;DHT22;59358;52.134;5.596;2023-07-29T02:06:20;17.70;99.90
19206;DHT22;59358;52.134;5.596;2023-07-29T02:08:47;17.80;99.90
19206;DHT22;59358;52.134;5.596;2023-07-29T02:11:13;17.70;99.90
19206;DHT22;59358;52.134;5.596;2023-07-29T02:13:42;17.70;99.90
19206;DHT22;59358;52.134;5.596;2023-07-29T02:16:09;17.70;99.90
19206;DHT22;59358;52.134;5.596;2023-07-29T02:18:36;17.70;99.90
19206;DHT22;59358;52.134;5.596;2023-07-29T02:21:03;17.70;99.90
19206;DHT22;59358;52.134;5.596;2023-07-29T02:23:30;17.70;99.90
19206;DHT22;59358;52.134;5.596;2023-07-29T02:25:57;17.70;99.90
19206;DHT22;59358;52.134;5.596;2023-07-29T02:28:24;17.70;99.90
19206;DHT22;59358;52.134;5.596;2023-07-29T02:31:11;17.70;99.90
19206;DHT22;59358;52.134;5.596;2023-07-29T02:33:38;17.70;99.90
19206;DHT22;59358;52.134;5.596;2023-07-29T02:36:05;17.70;99.90
19206;DHT22;59358;52.134;5.596;2023-07-29T02:38:32;17.60;99.90
19206;DHT22;59358;52.134;5.596;2023-07-29T02:40:59;17.60;99.90
19206;DHT22;59358;52.134;5.596;2023-07-29T02:43:26;17.60;99.90
19206;DHT22;59358;52.134;5.596;2023-07-29T02:45:53;17.50;99.90
19206;DHT22;59358;52.134;5.596;2023-07-29T02:48:21;17.50;99.90
19206;DHT22;59358;52.134;5.596;2023-07-29T02:50:48;17.50;99.90
19206;DHT22;59358;52.134;5.596;2023-07-29T02:53:15;17.50;99.90
19206;DHT22;59358;52.134;5.596;2023-07-29T02:55:43;17.50;99.90
19206;DHT22;59358;52.134;5.596;2023-07-29T02:58:10;17.50;99.90
19206;DHT22;59358;52.134;5.596;2023-07-29T03:00:37;17.40;99.90
19206;DHT22;59358;52.134;5.596;2023-07-29T03:03:05;17.40;99.90
19206;DHT22;59358;52.134;5.596;2023-07-29T03:05:34;17.30;99.90
19206;DHT22;59358;52.134;5.596;2023-07-29T03:08:01;17.30;99.90
19206;DHT22;59358;52.134;5.596;2023-07-29T03:10:28;17.30;99.90
19206;DHT22;59358;52.134;5.596;2023-07-29T03:12:55;17.30;99.90
19206;DHT22;59358;52.134;5.596;2023-07-29T03:15:23;17.20;99.90
19206;DHT22;59358;52.134;5.596;2023-07-29T03:17:51;17.30;99.90
19206;DHT22;59358;52.134;5.596;2023-07-29T03:20:18;17.30;99.90
19206;DHT22;59358;52.134;5.596;2023-07-29T03:22:47;17.30;99.90
19206;DHT22;59358;52.134;5.596;2023-07-29T03:25:14;17.30;99.90
19206;DHT22;59358;52.134;5.596;2023-07-29T03:27:41;17.30;99.90
19206;DHT22;59358;52.134;5.596;2023-07-29T03:30:08;17.30;99.90
19206;DHT22;59358;52.134;5.596;2023-07-29T03:32:35;17.30;99.90
19206;DHT22;59358;52.134;5.596;2023-07-29T03:35:02;17.20;99.90
19206;DHT22;59358;52.134;5.596;2023-07-29T03:37:29;17.20;99.90
19206;DHT22;59358;52.134;5.596;2023-07-29T03:39:58;17.20;99.90
19206;DHT22;59358;52.134;5.596;2023-07-29T03:42:25;17.20;99.90
19206;DHT22;59358;52.134;5.596;2023-07-29T03:44:51;17.20;99.90
19206;DHT22;59358;52.134;5.596;2023-07-29T03:47:18;17.20;99.90
19206;DHT22;59358;52.134;5.596;2023-07-29T03:49:45;17.20;99.90
19206;DHT22;59358;52.134;5.596;2023-07-29T03:52:12;17.10;99.90
19206;DHT22;59358;52.134;5.596;2023-07-29T03:54:40;17.10;99.90
19206;DHT22;59358;52.134;5.596;2023-07-29T03:57:08;17.10;99.90
19206;DHT22;59358;52.134;5.596;2023-07-29T03:59:35;17.20;99.90
19206;DHT22;59358;52.134;5.596;2023-07-29T04:02:02;17.10;99.90
19206;DHT22;59358;52.134;5.596;2023-07-29T04:04:29;17.10;99.90
19206;DHT22;59358;52.134;5.596;2023-07-29T04:06:56;17.20;99.90
19206;DHT22;59358;52.134;5.596;2023-07-29T04:09:23;17.10;99.90
19206;DHT22;59358;52.134;5.596;2023-07-29T04:11:50;17.10;99.90
19206;DHT22;59358;52.134;5.596;2023-07-29T04:14:18;17.10;99.90
19206;DHT22;59358;52.134;5.596;2023-07-29T04:16:45;17.10;99.90
19206;DHT22;59358;52.134;5.596;2023-07-29T04:19:14;17.10;99.90
19206;DHT22;59358;52.134;5.596;2023-07-29T04:21:41;17.10;99.90
19206;DHT22;59358;52.134;5.596;2023-07-29T04:24:09;17.10;99.90
19206;DHT22;59358;52.134;5.596;2023-07-29T04:26:36;17.00;99.90
19206;DHT22;59358;52.134;5.596;2023-07-29T04:29:04;17.00;99.90
19206;DHT22;59358;52.134;5.596;2023-07-29T04:31:32;17.00;99.90
19206;DHT22;59358;52.134;5.596;2023-07-29T04:33:59;16.90;99.90
19206;DHT22;59358;52.134;5.596;2023-07-29T04:36:26;16.90;99.90
19206;DHT22;59358;52.134;5.596;2023-07-29T04:38:53;16.90;99.90
19206;DHT22;59358;52.134;5.596;2023-07-29T04:41:20;17.00;99.90
19206;DHT22;59358;52.134;5.596;2023-07-29T04:43:47;16.90;99.90
19206;DHT22;59358;52.134;5.596;2023-07-29T04:46:15;16.90;99.90
19206;DHT22;59358;52.134;5.596;2023-07-29T04:48:43;16.90;99.90
19206;DHT22;59358;52.134;5.596;2023-07-29T04:51:10;16.90;99.90
19206;DHT22;59358;52.134;5.596;2023-07-29T04:53:37;16.90;99.90
19206;DHT22;59358;52.134;5.596;2023-07-29T04:56:04;16.90;99.90
19206;DHT22;59358;52.134;5.596;2023-07-29T04:58:31;17.00;99.90
19206;DHT22;59358;52.134;5.596;2023-07-29T05:01:00;17.00;99.90
19206;DHT22;59358;52.134;5.596;2023-07-29T05:03:27;17.00;99.90
19206;DHT22;59358;52.134;5.596;2023-07-29T05:05:57;17.00;99.90
19206;DHT22;59358;52.134;5.596;2023-07-29T05:08:25;17.00;99.90
19206;DHT22;59358;52.134;5.596;2023-07-29T05:10:52;17.00;99.90
19206;DHT22;59358;52.134;5.596;2023-07-29T05:13:20;17.00;99.90
19206;DHT22;59358;52.134;5.596;2023-07-29T05:15:47;17.00;99.90
19206;DHT22;59358;52.134;5.596;2023-07-29T05:18:14;17.10;99.90
19206;DHT22;59358;52.134;5.596;2023-07-29T05:20:41;17.10;99.90
19206;DHT22;59358;52.134;5.596;2023-07-29T05:23:10;17.10;99.90
19206;DHT22;59358;52.134;5.596;2023-07-29T05:25:36;17.20;99.90
19206;DHT22;59358;52.134;5.596;2023-07-29T05:28:03;17.30;99.90
19206;DHT22;59358;52.134;5.596;2023-07-29T05:30:31;17.40;99.90
19206;DHT22;59358;52.134;5.596;2023-07-29T05:32:59;17.40;99.90
19206;DHT22;59358;52.134;5.596;2023-07-29T05:35:26;17.30;99.90
19206;DHT22;59358;52.134;5.596;2023-07-29T05:37:53;17.30;99.90
19206;DHT22;59358;52.134;5.596;2023-07-29T05:40:21;17.30;99.90
19206;DHT22;59358;52.134;5.596;2023-07-29T05:42:48;17.40;99.90
19206;DHT22;59358;52.134;5.596;2023-07-29T05:45:15;17.40;99.90
19206;DHT22;59358;52.134;5.596;2023-07-29T05:47:42;17.40;99.90
19206;DHT22;59358;52.134;5.596;2023-07-29T05:50:09;17.40;99.90
19206;DHT22;59358;52.134;5.596;2023-07-29T05:52:36;17.40;99.90
19206;DHT22;59358;52.134;5.596;2023-07-29T05:55:04;17.40;99.90
19206;DHT22;59358;52.134;5.596;2023-07-29T05:57:32;17.40;99.90
19206;DHT22;59358;52.134;5.596;2023-07-29T05:59:59;17.50;99.90
19206;DHT22;59358;52.134;5.596;2023-07-29T06:02:26;17.60;99.90
19206;DHT22;59358;52.134;5.596;2023-07-29T06:04:53;17.70;99.90
19206;DHT22;59358;52.134;5.596;2023-07-29T06:07:20;17.70;99.90
19206;DHT22;59358;52.134;5.596;2023-07-29T06:09:47;17.80;99.90
19206;DHT22;59358;52.134;5.596;2023-07-29T06:12:13;17.70;99.90
19206;DHT22;59358;52.134;5.596;2023-07-29T06:14:42;17.70;99.90
19206;DHT22;59358;52.134;5.596;2023-07-29T06:17:08;17.80;99.90
19206;DHT22;59358;52.134;5.596;2023-07-29T06:19:36;17.90;99.90
19206;DHT22;59358;52.134;5.596;2023-07-29T06:22:04;17.90;99.90
19206;DHT22;59358;52.134;5.596;2023-07-29T06:24:31;17.90;99.90
19206;DHT22;59358;52.134;5.596;2023-07-29T06:26:58;18.00;99.90
19206;DHT22;59358;52.134;5.596;2023-07-29T06:29:25;18.10;99.90
19206;DHT22;59358;52.134;5.596;2023-07-29T06:31:53;18.40;99.90
19206;DHT22;59358;52.134;5.596;2023-07-29T06:34:20;18.40;99.90
19206;DHT22;59358;52.134;5.596;2023-07-29T06:36:48;18.40;99.90
19206;DHT22;59358;52.134;5.596;2023-07-29T06:39:14;18.40;99.90
19206;DHT22;59358;52.134;5.596;2023-07-29T06:41:41;18.40;99.90
19206;DHT22;59358;52.134;5.596;2023-07-29T06:44:08;18.40;99.90
19206;DHT22;59358;52.134;5.596;2023-07-29T06:46:35;18.40;99.90
19206;DHT22;59358;52.134;5.596;2023-07-29T06:49:05;18.50;99.90
19206;DHT22;59358;52.134;5.596;2023-07-29T06:51:32;18.50;99.90
19206;DHT22;59358;52.134;5.596;2023-07-29T06:54:01;18.60;99.90
19206;DHT22;59358;52.134;5.596;2023-07-29T06:56:28;18.70;99.90
19206;DHT22;59358;52.134;5.596;2023-07-29T06:58:55;18.90;99.90
19206;DHT22;59358;52.134;5.596;2023-07-29T07:01:22;18.80;99.90
19206;DHT22;59358;52.134;5.596;2023-07-29T07:03:49;18.60;99.90
19206;DHT22;59358;52.134;5.596;2023-07-29T07:06:21;18.70;99.90
19206;DHT22;59358;52.134;5.596;2023-07-29T07:08:50;19.00;99.90
19206;DHT22;59358;52.134;5.596;2023-07-29T07:11:18;19.10;99.90
19206;DHT22;59358;52.134;5.596;2023-07-29T07:13:45;19.20;99.90
19206;DHT22;59358;52.134;5.596;2023-07-29T07:16:11;19.20;99.90
19206;DHT22;59358;52.134;5.596;2023-07-29T07:18:38;19.30;99.90
19206;DHT22;59358;52.134;5.596;2023-07-29T07:21:05;19.50;99.90
19206;DHT22;59358;52.134;5.596;2023-07-29T07:23:34;19.40;99.90
19206;DHT22;59358;52.134;5.596;2023-07-29T07:26:01;19.30;99.90
19206;DHT22;59358;52.134;5.596;2023-07-29T07:28:28;19.30;99.90
19206;DHT22;59358;52.134;5.596;2023-07-29T07:30:55;19.50;99.90
19206;DHT22;59358;52.134;5.596;2023-07-29T07:33:22;19.40;99.90
19206;DHT22;59358;52.134;5.596;2023-07-29T07:35:48;19.30;99.90
19206;DHT22;59358;52.134;5.596;2023-07-29T07:38:15;19.40;99.90
19206;DHT22;59358;52.134;5.596;2023-07-29T07:40:52;19.40;99.90
19206;DHT22;59358;52.134;5.596;2023-07-29T07:43:19;19.30;99.90
19206;DHT22;59358;52.134;5.596;2023-07-29T07:45:46;19.40;99.90
19206;DHT22;59358;52.134;5.596;2023-07-29T07:48:13;19.40;99.90
19206;DHT22;59358;52.134;5.596;2023-07-29T07:50:42;19.70;99.90
19206;DHT22;59358;52.134;5.596;2023-07-29T07:53:09;19.80;99.90
19206;DHT22;59358;52.134;5.596;2023-07-29T07:55:35;19.70;99.90
19206;DHT22;59358;52.134;5.596;2023-07-29T07:58:04;19.70;99.90
19206;DHT22;59358;52.134;5.596;2023-07-29T08:00:31;19.70;99.90
19206;DHT22;59358;52.134;5.596;2023-07-29T08:02:57;19.70;99.90
19206;DHT22;59358;52.134;5.596;2023-07-29T08:05:24;19.80;99.90
19206;DHT22;59358;52.134;5.596;2023-07-29T08:07:51;19.90;99.90
19206;DHT22;59358;52.134;5.596;2023-07-29T08:10:18;20.20;99.90
19206;DHT22;59358;52.134;5.596;2023-07-29T08:12:45;20.20;99.90
19206;DHT22;59358;52.134;5.596;2023-07-29T08:15:13;20.10;99.90
19206;DHT22;59358;52.134;5.596;2023-07-29T08:17:40;20.10;99.90
19206;DHT22;59358;52.134;5.596;2023-07-29T08:20:07;20.20;99.90
19206;DHT22;59358;52.134;5.596;2023-07-29T08:22:35;20.50;99.90
19206;DHT22;59358;52.134;5.596;2023-07-29T08:25:02;20.50;99.90
19206;DHT22;59358;52.134;5.596;2023-07-29T08:27:29;20.40;99.90
19206;DHT22;59358;52.134;5.596;2023-07-29T08:29:56;20.30;99.90
19206;DHT22;59358;52.134;5.596;2023-07-29T08:32:24;20.30;99.90
19206;DHT22;59358;52.134;5.596;2023-07-29T08:34:51;20.30;99.90
19206;DHT22;59358;52.134;5.596;2023-07-29T08:37:18;20.40;99.90
19206;DHT22;59358;52.134;5.596;2023-07-29T08:39:45;20.50;99.90
19206;DHT22;59358;52.134;5.596;2023-07-29T08:42:12;20.50;99.90
19206;DHT22;59358;52.134;5.596;2023-07-29T08:44:41;20.70;99.90
19206;DHT22;59358;52.134;5.596;2023-07-29T08:47:08;21.10;99.90
19206;DHT22;59358;52.134;5.596;2023-07-29T08:49:37;21.30;99.90
19206;DHT22;59358;52.134;5.596;2023-07-29T08:52:07;20.90;99.90
19206;DHT22;59358;52.134;5.596;2023-07-29T08:54:34;20.60;99.90
19206;DHT22;59358;52.134;5.596;2023-07-29T08:57:01;20.40;99.90
19206;DHT22;59358;52.134;5.596;2023-07-29T08:59:29;20.30;99.90
19206;DHT22;59358;52.134;5.596;2023-07-29T09:01:56;20.30;99.90
19206;DHT22;59358;52.134;5.596;2023-07-29T09:04:24;20.50;99.90
19206;DHT22;59358;52.134;5.596;2023-07-29T09:06:54;20.70;99.90
19206;DHT22;59358;52.134;5.596;2023-07-29T09:09:22;20.70;99.90
19206;DHT22;59358;52.134;5.596;2023-07-29T09:11:49;20.80;99.90
19206;DHT22;59358;52.134;5.596;2023-07-29T09:14:16;20.70;99.90
19206;DHT22;59358;52.134;5.596;2023-07-29T09:16:44;20.80;99.90
19206;DHT22;59358;52.134;5.596;2023-07-29T09:19:11;21.00;99.90
19206;DHT22;59358;52.134;5.596;2023-07-29T09:21:39;21.00;99.90
19206;DHT22;59358;52.134;5.596;2023-07-29T09:24:08;21.00;99.90
19206;DHT22;59358;52.134;5.596;2023-07-29T09:26:35;20.80;99.90
19206;DHT22;59358;52.134;5.596;2023-07-29T09:29:02;20.90;99.90
19206;DHT22;59358;52.134;5.596;2023-07-29T09:31:30;20.80;99.90
19206;DHT22;59358;52.134;5.596;2023-07-29T09:33:57;21.20;99.90
19206;DHT22;59358;52.134;5.596;2023-07-29T09:36:25;21.60;99.90
19206;DHT22;59358;52.134;5.596;2023-07-29T09:38:53;21.40;99.90
19206;DHT22;59358;52.134;5.596;2023-07-29T09:41:24;21.60;99.90
19206;DHT22;59358;52.134;5.596;2023-07-29T09:43:56;21.60;99.90
19206;DHT22;59358;52.134;5.596;2023-07-29T09:46:24;21.80;99.90
19206;DHT22;59358;52.134;5.596;2023-07-29T09:48:53;21.90;99.90
19206;DHT22;59358;52.134;5.596;2023-07-29T09:51:21;21.70;99.90
19206;DHT22;59358;52.134;5.596;2023-07-29T09:53:50;21.50;99.90
19206;DHT22;59358;52.134;5.596;2023-07-29T09:56:17;21.10;99.90
19206;DHT22;59358;52.134;5.596;2023-07-29T09:58:46;21.30;99.90
19206;DHT22;59358;52.134;5.596;2023-07-29T10:01:14;21.60;99.90
19206;DHT22;59358;52.134;5.596;2023-07-29T10:03:42;21.60;99.90
19206;DHT22;59358;52.134;5.596;2023-07-29T10:06:10;21.70;99.90
19206;DHT22;59358;52.134;5.596;2023-07-29T10:08:39;21.30;99.90
19206;DHT22;59358;52.134;5.596;2023-07-29T10:11:06;21.10;99.90
19206;DHT22;59358;52.134;5.596;2023-07-29T10:13:34;20.80;99.90
19206;DHT22;59358;52.134;5.596;2023-07-29T10:16:03;20.70;99.90
19206;DHT22;59358;52.134;5.596;2023-07-29T10:18:31;20.80;99.90
19206;DHT22;59358;52.134;5.596;2023-07-29T10:21:00;20.60;99.90
19206;DHT22;59358;52.134;5.596;2023-07-29T10:23:32;20.70;99.90
19206;DHT22;59358;52.134;5.596;2023-07-29T10:26:03;20.80;99.90
19206;DHT22;59358;52.134;5.596;2023-07-29T10:28:31;21.20;99.90
19206;DHT22;59358;52.134;5.596;2023-07-29T10:31:01;21.40;99.90
19206;DHT22;59358;52.134;5.596;2023-07-29T10:33:31;21.40;99.90
19206;DHT22;59358;52.134;5.596;2023-07-29T10:36:00;21.50;99.90
19206;DHT22;59358;52.134;5.596;2023-07-29T10:38:27;21.30;99.90
19206;DHT22;59358;52.134;5.596;2023-07-29T10:40:55;21.10;99.90
19206;DHT22;59358;52.134;5.596;2023-07-29T10:43:26;21.10;99.90
19206;DHT22;59358;52.134;5.596;2023-07-29T10:45:55;21.20;99.90
19206;DHT22;59358;52.134;5.596;2023-07-29T10:48:45;21.40;99.90
19206;DHT22;59358;52.134;5.596;2023-07-29T10:51:25;21.70;99.90
19206;DHT22;59358;52.134;5.596;2023-07-29T10:53:53;22.00;99.90
19206;DHT22;59358;52.134;5.596;2023-07-29T10:56:29;22.00;99.90
19206;DHT22;59358;52.134;5.596;2023-07-29T10:58:58;21.70;99.90
19206;DHT22;59358;52.134;5.596;2023-07-29T11:01:29;21.70;99.90
19206;DHT22;59358;52.134;5.596;2023-07-29T11:04:24;22.00;99.90
19206;DHT22;59358;52.134;5.596;2023-07-29T11:07:19;22.10;99.90
19206;DHT22;59358;52.134;5.596;2023-07-29T11:09:57;21.90;99.90
19206;DHT22;59358;52.134;5.596;2023-07-29T11:12:41;22.10;99.90
19206;DHT22;59358;52.134;5.596;2023-07-29T11:15:19;21.80;99.90
19206;DHT22;59358;52.134;5.596;2023-07-29T11:17:48;21.90;99.90
19206;DHT22;59358;52.134;5.596;2023-07-29T11:20:18;21.70;99.90
19206;DHT22;59358;52.134;5.596;2023-07-29T11:22:46;21.40;99.90
19206;DHT22;59358;52.134;5.596;2023-07-29T11:25:14;21.40;99.90
19206;DHT22;59358;52.134;5.596;2023-07-29T11:27:42;21.50;99.90
19206;DHT22;59358;52.134;5.596;2023-07-29T11:30:10;21.50;99.90
19206;DHT22;59358;52.134;5.596;2023-07-29T11:32:39;21.50;99.90
19206;DHT22;59358;52.134;5.596;2023-07-29T11:35:07;21.60;99.90
19206;DHT22;59358;52.134;5.596;2023-07-29T11:37:37;21.40;99.90
19206;DHT22;59358;52.134;5.596;2023-07-29T11:40:05;21.30;99.90
19206;DHT22;59358;52.134;5.596;2023-07-29T11:42:33;21.30;99.90
19206;DHT22;59358;52.134;5.596;2023-07-29T11:45:00;21.00;99.90
19206;DHT22;59358;52.134;5.596;2023-07-29T11:47:27;21.00;99.90
19206;DHT22;59358;52.134;5.596;2023-07-29T11:49:57;20.90;99.90
19206;DHT22;59358;52.134;5.596;2023-07-29T11:52:24;20.80;99.90
19206;DHT22;59358;52.134;5.596;2023-07-29T11:54:53;20.50;99.90
19206;DHT22;59358;52.134;5.596;2023-07-29T11:57:20;20.20;99.90
19206;DHT22;59358;52.134;5.596;2023-07-29T11:59:47;20.00;99.90
19206;DHT22;59358;52.134;5.596;2023-07-29T12:02:16;20.00;99.90
19206;DHT22;59358;52.134;5.596;2023-07-29T12:04:44;19.80;99.90
19206;DHT22;59358;52.134;5.596;2023-07-29T12:07:13;19.80;99.90
19206;DHT22;59358;52.134;5.596;2023-07-29T12:09:41;19.90;99.90
19206;DHT22;59358;52.134;5.596;2023-07-29T12:12:10;20.00;99.90
19206;DHT22;59358;52.134;5.596;2023-07-29T12:14:37;20.30;99.90
19206;DHT22;59358;52.134;5.596;2023-07-29T12:17:05;20.50;99.90
19206;DHT22;59358;52.134;5.596;2023-07-29T12:19:33;20.60;99.90
19206;DHT22;59358;52.134;5.596;2023-07-29T12:22:01;20.60;99.90
19206;DHT22;59358;52.134;5.596;2023-07-29T12:24:29;20.40;99.90
19206;DHT22;59358;52.134;5.596;2023-07-29T12:26:56;20.40;99.90
19206;DHT22;59358;52.134;5.596;2023-07-29T12:29:26;20.60;99.90
19206;DHT22;59358;52.134;5.596;2023-07-29T12:31:58;21.00;99.90
19206;DHT22;59358;52.134;5.596;2023-07-29T12:34:26;21.20;99.90
19206;DHT22;59358;52.134;5.596;2023-07-29T12:36:56;21.40;99.90
19206;DHT22;59358;52.134;5.596;2023-07-29T12:39:24;21.50;99.90
19206;DHT22;59358;52.134;5.596;2023-07-29T12:41:52;21.80;99.90
19206;DHT22;59358;52.134;5.596;2023-07-29T12:44:19;21.90;99.90
19206;DHT22;59358;52.134;5.596;2023-07-29T12:46:47;22.10;99.90
19206;DHT22;59358;52.134;5.596;2023-07-29T12:49:14;21.90;99.90
19206;DHT22;59358;52.134;5.596;2023-07-29T12:51:41;22.00;99.90
19206;DHT22;59358;52.134;5.596;2023-07-29T12:54:08;22.10;99.90
19206;DHT22;59358;52.134;5.596;2023-07-29T12:56:35;22.00;99.90
19206;DHT22;59358;52.134;5.596;2023-07-29T12:59:02;21.70;99.90
19206;DHT22;59358;52.134;5.596;2023-07-29T13:01:29;21.50;99.90
19206;DHT22;59358;52.134;5.596;2023-07-29T13:03:58;21.50;99.90
19206;DHT22;59358;52.134;5.596;2023-07-29T13:06:24;21.40;99.90
19206;DHT22;59358;52.134;5.596;2023-07-29T13:08:51;21.60;99.90
19206;DHT22;59358;52.134;5.596;2023-07-29T13:11:18;21.90;99.90
19206;DHT22;59358;52.134;5.596;2023-07-29T13:13:45;22.00;99.90
19206;DHT22;59358;52.134;5.596;2023-07-29T13:16:13;22.20;99.90
19206;DHT22;59358;52.134;5.596;2023-07-29T13:18:40;22.60;99.90
19206;DHT22;59358;52.134;5.596;2023-07-29T13:21:08;23.10;99.90
19206;DHT22;59358;52.134;5.596;2023-07-29T13:23:35;23.20;99.90
19206;DHT22;59358;52.134;5.596;2023-07-29T13:26:02;23.10;99.90
19206;DHT22;59358;52.134;5.596;2023-07-29T13:28:29;22.60;99.90
19206;DHT22;59358;52.134;5.596;2023-07-29T13:30:55;23.10;99.90
19206;DHT22;59358;52.134;5.596;2023-07-29T13:33:22;23.20;99.90
19206;DHT22;59358;52.134;5.596;2023-07-29T13:35:50;23.50;99.90
19206;DHT22;59358;52.134;5.596;2023-07-29T13:38:18;23.70;99.90
19206;DHT22;59358;52.134;5.596;2023-07-29T13:40:45;23.30;99.90
19206;DHT22;59358;52.134;5.596;2023-07-29T13:43:12;23.30;99.90
19206;DHT22;59358;52.134;5.596;2023-07-29T13:45:39;23.10;99.90
19206;DHT22;59358;52.134;5.596;2023-07-29T13:48:06;22.90;99.90
19206;DHT22;59358;52.134;5.596;2023-07-29T13:50:33;22.80;99.90
19206;DHT22;59358;52.134;5.596;2023-07-29T13:53:00;23.00;99.90
19206;DHT22;59358;52.134;5.596;2023-07-29T13:55:28;23.20;99.90
19206;DHT22;59358;52.134;5.596;2023-07-29T13:57:55;23.00;99.90
19206;DHT22;59358;52.134;5.596;2023-07-29T14:00:22;23.40;99.90
19206;DHT22;59358;52.134;5.596;2023-07-29T14:02:49;23.80;99.90
19206;DHT22;59358;52.134;5.596;2023-07-29T14:05:16;23.60;99.90
19206;DHT22;59358;52.134;5.596;2023-07-29T14:07:42;23.10;99.90
19206;DHT22;59358;52.134;5.596;2023-07-29T14:10:09;23.20;99.90
19206;DHT22;59358;52.134;5.596;2023-07-29T14:12:38;23.50;99.90
19206;DHT22;59358;52.134;5.596;2023-07-29T14:15:06;24.10;99.90
19206;DHT22;59358;52.134;5.596;2023-07-29T14:17:33;24.40;99.90
19206;DHT22;59358;52.134;5.596;2023-07-29T14:20:00;24.30;99.90
19206;DHT22;59358;52.134;5.596;2023-07-29T14:22:28;23.80;99.90
19206;DHT22;59358;52.134;5.596;2023-07-29T14:24:55;24.10;99.90
19206;DHT22;59358;52.134;5.596;2023-07-29T14:27:22;24.30;99.90
19206;DHT22;59358;52.134;5.596;2023-07-29T14:29:50;24.40;99.90
19206;DHT22;59358;52.134;5.596;2023-07-29T14:32:17;24.80;99.90
19206;DHT22;59358;52.134;5.596;2023-07-29T14:34:44;25.00;99.90
19206;DHT22;59358;52.134;5.596;2023-07-29T14:37:11;25.40;99.90
19206;DHT22;59358;52.134;5.596;2023-07-29T14:39:38;26.10;99.90
19206;DHT22;59358;52.134;5.596;2023-07-29T14:42:05;25.70;99.90
19206;DHT22;59358;52.134;5.596;2023-07-29T14:44:33;25.10;99.90
19206;DHT22;59358;52.134;5.596;2023-07-29T14:47:01;24.90;99.90
19206;DHT22;59358;52.134;5.596;2023-07-29T14:49:28;24.90;99.90
19206;DHT22;59358;52.134;5.596;2023-07-29T14:51:55;25.20;99.90
19206;DHT22;59358;52.134;5.596;2023-07-29T14:54:22;26.00;99.90
19206;DHT22;59358;52.134;5.596;2023-07-29T14:56:49;26.50;99.90
19206;DHT22;59358;52.134;5.596;2023-07-29T14:59:16;26.60;99.90
19206;DHT22;59358;52.134;5.596;2023-07-29T15:01:43;25.40;99.90
19206;DHT22;59358;52.134;5.596;2023-07-29T15:04:11;25.60;99.90
19206;DHT22;59358;52.134;5.596;2023-07-29T15:06:38;25.50;99.90
19206;DHT22;59358;52.134;5.596;2023-07-29T15:09:05;25.00;99.90
19206;DHT22;59358;52.134;5.596;2023-07-29T15:11:33;24.20;99.90
19206;DHT22;59358;52.134;5.596;2023-07-29T15:14:00;23.90;99.90
19206;DHT22;59358;52.134;5.596;2023-07-29T15:16:33;23.60;99.90
19206;DHT22;59358;52.134;5.596;2023-07-29T15:19:02;23.40;99.90
19206;DHT22;59358;52.134;5.596;2023-07-29T15:21:31;23.30;99.90
19206;DHT22;59358;52.134;5.596;2023-07-29T15:23:59;23.20;99.90
19206;DHT22;59358;52.134;5.596;2023-07-29T15:26:26;24.20;99.90
19206;DHT22;59358;52.134;5.596;2023-07-29T15:28:55;25.60;99.90
19206;DHT22;59358;52.134;5.596;2023-07-29T15:31:22;26.20;99.90
19206;DHT22;59358;52.134;5.596;2023-07-29T15:33:49;26.50;99.90
19206;DHT22;59358;52.134;5.596;2023-07-29T15:36:17;28.00;99.90